createdAt,value
2019-03-18T00:01:43.163Z,1.97
2019-03-18T00:04:10.245Z,3.90
2019-03-18T00:06:37.077Z,4.10
2019-03-18T00:09:05.586Z,1.67
2019-03-18T00:11:32.756Z,5.50
2019-03-18T00:14:00.774Z,1.50
2019-03-18T00:16:27.634Z,3.20
2019-03-18T00:18:55.447Z,5.80
2019-03-18T00:21:22.401Z,3.70
2019-03-18T00:23:49.337Z,1.37
2019-03-18T00:26:16.348Z,2.53
2019-03-18T00:28:43.317Z,3.63
2019-03-18T00:31:10.044Z,2.00
2019-03-18T00:33:37.216Z,2.73
2019-03-18T00:36:04.057Z,3.63
2019-03-18T00:38:30.979Z,3.17
2019-03-18T00:40:58.041Z,3.67
2019-03-18T00:43:24.830Z,3.73
2019-03-18T00:45:52.058Z,5.10
2019-03-18T00:48:19.002Z,2.67
2019-03-18T00:50:48.277Z,2.47
2019-03-18T00:53:14.995Z,2.23
2019-03-18T00:55:41.738Z,2.47
2019-03-18T00:58:08.947Z,2.47
2019-03-18T01:00:35.780Z,3.93
2019-03-18T01:03:02.867Z,3.17
2019-03-18T01:05:30.921Z,8.27
2019-03-18T01:08:00.307Z,2.23
2019-03-18T01:10:27.041Z,2.17
2019-03-18T01:12:53.851Z,2.40
2019-03-18T01:15:27.857Z,3.00
2019-03-18T01:17:51.459Z,5.67
2019-03-18T01:20:18.411Z,5.90
2019-03-18T01:22:45.801Z,2.63
2019-03-18T01:25:13.083Z,3.63
2019-03-18T01:27:40.223Z,2.67
2019-03-18T01:30:12.327Z,4.37
2019-03-18T01:32:39.279Z,2.37
2019-03-18T01:35:08.325Z,4.03
2019-03-18T01:37:35.347Z,3.00
2019-03-18T01:40:04.876Z,3.03
2019-03-18T01:42:31.850Z,3.37
2019-03-18T01:44:58.669Z,4.53
2019-03-18T01:47:25.738Z,2.40
2019-03-18T01:49:52.679Z,2.60
2019-03-18T01:52:19.398Z,2.63
2019-03-18T01:54:46.115Z,3.57
2019-03-18T01:57:13.247Z,3.63
2019-03-18T01:59:40.241Z,5.20
2019-03-18T02:02:07.167Z,5.20
2019-03-18T02:04:35.099Z,4.67
2019-03-18T02:07:02.164Z,3.80
2019-03-18T02:09:29.926Z,3.80
2019-03-18T02:11:56.879Z,4.57
2019-03-18T02:14:25.473Z,7.37
2019-03-18T02:16:52.407Z,2.87
2019-03-18T02:19:19.405Z,7.27
2019-03-18T02:21:46.195Z,5.03
2019-03-18T02:24:13.151Z,4.07
2019-03-18T02:26:40.229Z,2.73
2019-03-18T02:29:06.926Z,3.53
2019-03-18T02:31:35.474Z,3.23
2019-03-18T02:34:02.663Z,3.43
2019-03-18T02:36:29.617Z,3.47
2019-03-18T02:38:56.887Z,3.33
2019-03-18T02:41:23.763Z,3.77
2019-03-18T02:43:50.754Z,3.50
2019-03-18T02:46:17.625Z,2.70
2019-03-18T02:48:44.413Z,9.43
2019-03-18T02:51:11.350Z,4.43
2019-03-18T02:53:38.601Z,3.60
2019-03-18T02:56:05.528Z,6.53
2019-03-18T02:58:32.227Z,3.23
2019-03-18T03:00:59.322Z,4.43
2019-03-18T03:03:26.222Z,6.33
2019-03-18T03:05:53.047Z,3.30
2019-03-18T03:08:20.332Z,4.70
2019-03-18T03:10:47.263Z,4.80
2019-03-18T03:13:13.996Z,6.07
2019-03-18T03:15:42.903Z,6.90
2019-03-18T03:18:09.842Z,4.73
2019-03-18T03:20:38.134Z,4.27
2019-03-18T03:23:05.635Z,3.03
2019-03-18T03:25:32.574Z,4.60
2019-03-18T03:27:59.531Z,5.80
2019-03-18T03:30:26.768Z,6.87
2019-03-18T03:32:55.285Z,5.70
2019-03-18T03:35:22.057Z,6.00
2019-03-18T03:37:49.388Z,6.10
2019-03-18T03:40:16.120Z,6.17
2019-03-18T03:42:43.189Z,5.33
2019-03-18T03:45:12.871Z,5.27
2019-03-18T03:47:40.028Z,4.47
2019-03-18T03:50:09.430Z,4.70
2019-03-18T03:52:36.391Z,8.33
2019-03-18T03:55:05.937Z,6.13
2019-03-18T03:57:32.843Z,4.43
2019-03-18T03:59:59.712Z,6.07
2019-03-18T04:02:27.124Z,4.70
2019-03-18T04:04:54.174Z,4.17
2019-03-18T04:07:21.120Z,7.13
2019-03-18T04:09:47.974Z,6.53
2019-03-18T04:12:14.785Z,6.03
2019-03-18T04:14:41.733Z,6.33
2019-03-18T04:17:08.583Z,7.53
2019-03-18T04:19:36.017Z,6.37
2019-03-18T04:22:03.564Z,5.40
2019-03-18T04:24:30.795Z,6.97
2019-03-18T04:26:58.104Z,6.17
2019-03-18T04:29:24.870Z,7.67
2019-03-18T04:31:51.881Z,7.17
2019-03-18T04:34:18.719Z,6.97
2019-03-18T04:36:45.698Z,5.97
2019-03-18T04:39:12.540Z,8.47
2019-03-18T04:41:39.342Z,10.03
2019-03-18T04:44:06.410Z,8.43
2019-03-18T04:46:34.147Z,8.80
2019-03-18T04:49:00.873Z,8.37
2019-03-18T04:51:27.784Z,7.50
2019-03-18T04:53:54.616Z,9.30
2019-03-18T04:56:21.592Z,10.77
2019-03-18T04:58:48.513Z,7.27
2019-03-18T05:01:15.542Z,9.37
2019-03-18T05:03:42.652Z,9.13
2019-03-18T05:06:10.521Z,9.53
2019-03-18T05:08:37.560Z,9.87
2019-03-18T05:11:04.547Z,10.93
2019-03-18T05:13:31.363Z,9.23
2019-03-18T05:15:58.410Z,7.17
2019-03-18T05:18:25.494Z,16.57
2019-03-18T05:20:53.255Z,8.40
2019-03-18T05:23:20.142Z,9.20
2019-03-18T05:25:46.892Z,10.83
2019-03-18T05:28:15.414Z,10.77
2019-03-18T05:30:42.207Z,13.43
2019-03-18T05:33:11.163Z,9.60
2019-03-18T05:35:38.151Z,9.30
2019-03-18T05:38:06.945Z,12.77
2019-03-18T05:40:35.470Z,44.10
2019-03-18T05:43:02.498Z,25.50
2019-03-18T05:45:29.533Z,11.00
2019-03-18T05:47:56.401Z,10.27
2019-03-18T05:50:23.348Z,9.43
2019-03-18T05:52:50.266Z,10.87
2019-03-18T05:55:18.036Z,9.10
2019-03-18T05:57:46.363Z,20.50
2019-03-18T06:00:13.544Z,11.87
2019-03-18T06:02:40.716Z,11.80
2019-03-18T06:05:08.748Z,10.20
2019-03-18T06:07:35.698Z,12.00
2019-03-18T06:10:06.260Z,12.00
2019-03-18T06:12:33.178Z,12.03
2019-03-18T06:15:00.450Z,10.70
2019-03-18T06:17:27.276Z,15.73
2019-03-18T06:19:55.062Z,13.17
2019-03-18T06:22:22.782Z,23.30
2019-03-18T06:24:49.715Z,24.20
2019-03-18T06:27:16.918Z,12.87
2019-03-18T06:29:43.748Z,12.93
2019-03-18T06:32:10.860Z,13.80
2019-03-18T06:34:37.987Z,13.60
2019-03-18T06:37:04.978Z,14.63
2019-03-18T06:39:31.905Z,13.90
2019-03-18T06:41:58.632Z,13.80
2019-03-18T06:44:26.038Z,15.23
2019-03-18T06:46:53.195Z,13.87
2019-03-18T06:49:21.759Z,12.33
2019-03-18T06:51:48.861Z,14.03
2019-03-18T06:54:15.813Z,12.53
2019-03-18T06:56:42.798Z,12.90
2019-03-18T06:59:09.944Z,14.67
2019-03-18T07:01:36.672Z,11.47
2019-03-18T07:04:05.320Z,13.10
2019-03-18T07:06:32.200Z,12.60
2019-03-18T07:09:00.658Z,15.70
2019-03-18T07:11:27.360Z,15.17
2019-03-18T07:13:55.806Z,17.07
2019-03-18T07:16:22.700Z,13.77
2019-03-18T07:18:49.951Z,17.97
2019-03-18T07:21:16.888Z,12.33
2019-03-18T07:23:44.070Z,13.23
2019-03-18T07:26:10.933Z,14.07
2019-03-18T07:28:37.680Z,12.90
2019-03-18T07:31:04.504Z,11.00
2019-03-18T07:33:33.039Z,13.43
2019-03-18T07:35:59.828Z,16.27
2019-03-18T07:38:26.916Z,11.83
2019-03-18T07:40:53.751Z,12.27
2019-03-18T07:43:20.478Z,20.77
2019-03-18T07:45:47.518Z,17.43
2019-03-18T07:48:14.684Z,17.43
2019-03-18T07:50:41.747Z,14.63
2019-03-18T07:53:09.370Z,14.13
2019-03-18T07:55:36.122Z,11.83
2019-03-18T07:58:03.261Z,16.97
2019-03-18T08:00:30.199Z,18.77
2019-03-18T08:02:57.127Z,12.40
2019-03-18T08:05:23.874Z,13.13
2019-03-18T08:07:50.583Z,12.60
2019-03-18T08:10:17.509Z,13.87
2019-03-18T08:12:44.395Z,13.27
2019-03-18T08:15:12.611Z,19.53
2019-03-18T08:17:39.529Z,14.83
2019-03-18T08:20:10.351Z,13.13
2019-03-18T08:22:38.519Z,11.53
2019-03-18T08:25:09.250Z,12.67
2019-03-18T08:27:36.829Z,13.53
2019-03-18T08:30:12.505Z,12.27
2019-03-18T08:32:39.620Z,12.97
2019-03-18T08:35:06.924Z,12.53
2019-03-18T08:37:35.358Z,11.10
2019-03-18T08:40:04.622Z,12.83
2019-03-18T08:42:31.497Z,11.80
2019-03-18T08:44:59.268Z,12.43
2019-03-18T08:47:26.295Z,14.37
2019-03-18T08:49:53.892Z,17.73
2019-03-18T08:52:20.648Z,19.97
2019-03-18T08:54:48.604Z,11.87
2019-03-18T08:57:15.612Z,17.27
2019-03-18T08:59:44.482Z,9.27
2019-03-18T09:02:11.465Z,16.17
2019-03-18T09:04:38.245Z,10.10
2019-03-18T09:07:06.881Z,16.93
2019-03-18T09:09:35.481Z,15.07
2019-03-18T09:12:02.409Z,11.63
2019-03-18T09:14:29.368Z,8.70
2019-03-18T09:16:56.145Z,6.83
2019-03-18T09:19:23.163Z,10.07
2019-03-18T09:21:50.094Z,8.10
2019-03-18T09:24:17.011Z,7.77
2019-03-18T09:26:45.710Z,9.93
2019-03-18T09:29:12.537Z,13.33
2019-03-18T09:31:39.363Z,15.60
2019-03-18T09:34:06.228Z,11.40
2019-03-18T09:36:32.915Z,10.13
2019-03-18T09:39:00.523Z,17.37
2019-03-18T09:41:27.366Z,12.17
2019-03-18T09:43:55.502Z,13.57
2019-03-18T09:46:22.906Z,19.17
2019-03-18T09:48:49.670Z,10.63
2019-03-18T09:51:16.563Z,14.23
2019-03-18T09:53:43.502Z,12.77
2019-03-18T09:56:10.675Z,12.13
2019-03-18T09:58:37.521Z,11.13
2019-03-18T10:01:05.603Z,10.53
2019-03-18T10:03:32.580Z,10.77
2019-03-18T10:05:59.735Z,10.33
2019-03-18T10:08:26.655Z,20.23
2019-03-18T10:10:53.409Z,11.83
2019-03-18T10:13:21.013Z,11.77
2019-03-18T10:15:47.840Z,7.37
2019-03-18T10:18:14.870Z,7.90
2019-03-18T10:20:41.845Z,10.37
2019-03-18T10:23:08.686Z,10.27
2019-03-18T10:25:35.807Z,9.80
2019-03-18T10:28:02.755Z,20.97
2019-03-18T10:30:29.785Z,8.40
2019-03-18T10:32:58.355Z,10.53
2019-03-18T10:35:25.286Z,13.40
2019-03-18T10:37:52.373Z,7.20
2019-03-18T10:40:19.701Z,8.97
2019-03-18T10:42:48.678Z,9.50
2019-03-18T10:45:15.674Z,8.67
2019-03-18T10:47:42.686Z,9.63
2019-03-18T10:50:12.729Z,8.13
2019-03-18T10:52:39.884Z,7.27
2019-03-18T10:55:08.415Z,9.47
2019-03-18T10:57:35.549Z,7.47
2019-03-18T11:00:16.881Z,16.20
2019-03-18T11:02:45.687Z,15.60
2019-03-18T11:05:13.479Z,10.20
2019-03-18T11:07:40.519Z,8.80
2019-03-18T11:10:12.591Z,17.20
2019-03-18T11:12:39.336Z,17.47
2019-03-18T11:15:11.422Z,16.53
2019-03-18T11:17:38.236Z,23.80
2019-03-18T11:20:08.933Z,22.43
2019-03-18T11:22:35.635Z,18.73
2019-03-18T11:25:05.385Z,26.20
2019-03-18T11:27:32.239Z,14.10
2019-03-18T11:29:59.629Z,11.13
2019-03-18T11:32:26.556Z,9.60
2019-03-18T11:34:55.091Z,10.63
2019-03-18T11:37:22.190Z,10.03
2019-03-18T11:39:49.262Z,6.63
2019-03-18T11:42:16.585Z,12.20
2019-03-18T11:44:45.379Z,6.97
2019-03-18T11:47:12.368Z,8.57
2019-03-18T11:49:40.051Z,7.40
2019-03-18T11:52:06.947Z,11.23
2019-03-18T11:54:35.657Z,6.83
2019-03-18T11:57:03.079Z,6.07
2019-03-18T11:59:30.206Z,6.60
2019-03-18T12:01:57.026Z,13.03
2019-03-18T12:04:25.817Z,6.77
2019-03-18T12:06:52.841Z,7.27
2019-03-18T12:09:19.682Z,12.97
2019-03-18T12:11:46.862Z,16.70
2019-03-18T12:14:13.778Z,9.07
2019-03-18T12:16:40.688Z,6.90
2019-03-18T12:19:07.774Z,6.60
2019-03-18T12:21:35.117Z,9.97
2019-03-18T12:24:03.805Z,6.87
2019-03-18T12:26:30.747Z,10.57
2019-03-18T12:28:57.807Z,6.93
2019-03-18T12:31:25.393Z,8.60
2019-03-18T12:33:52.143Z,6.60
2019-03-18T12:36:19.120Z,13.03
2019-03-18T12:38:46.059Z,5.67
2019-03-18T12:41:13.525Z,9.77
2019-03-18T12:43:40.208Z,8.50
2019-03-18T12:46:07.080Z,10.07
2019-03-18T12:48:35.676Z,9.60
2019-03-18T12:51:03.110Z,5.87
2019-03-18T12:53:30.274Z,6.73
2019-03-18T12:55:57.125Z,8.37
2019-03-18T12:58:23.965Z,12.23
2019-03-18T13:00:51.328Z,8.33
2019-03-18T13:03:18.206Z,9.30
2019-03-18T13:05:45.591Z,6.80
2019-03-18T13:08:12.340Z,5.87
2019-03-18T13:10:39.043Z,7.53
2019-03-18T13:13:06.014Z,9.73
2019-03-18T13:15:34.779Z,7.93
2019-03-18T13:18:01.881Z,5.03
2019-03-18T13:20:28.969Z,9.53
2019-03-18T13:22:56.164Z,8.73
2019-03-18T13:25:23.453Z,7.60
2019-03-18T13:27:50.587Z,5.57
2019-03-18T13:30:23.986Z,9.67
2019-03-18T13:32:51.516Z,7.23
2019-03-18T13:35:19.614Z,9.90
2019-03-18T13:37:46.452Z,35.50
2019-03-18T13:40:14.489Z,45.77
2019-03-18T13:42:43.323Z,13.57
2019-03-18T13:45:12.612Z,19.13
2019-03-18T13:47:39.969Z,16.40
2019-03-18T13:50:09.602Z,9.47
2019-03-18T13:52:36.447Z,16.20
2019-03-18T13:55:06.803Z,7.40
2019-03-18T13:57:33.806Z,7.83
2019-03-18T14:00:01.024Z,8.73
2019-03-18T14:02:27.718Z,3.53
2019-03-18T14:04:55.156Z,3.20
2019-03-18T14:07:22.512Z,5.97
2019-03-18T14:09:50.805Z,6.43
2019-03-18T14:12:17.990Z,7.93
2019-03-18T14:14:44.888Z,2.90
2019-03-18T14:17:12.278Z,3.93
2019-03-18T14:19:38.994Z,7.23
2019-03-18T14:22:05.792Z,3.33
2019-03-18T14:24:33.521Z,8.60
2019-03-18T14:27:00.304Z,7.23
2019-03-18T14:29:27.217Z,11.10
2019-03-18T14:31:55.444Z,6.57
2019-03-18T14:34:22.161Z,4.77
2019-03-18T14:36:49.915Z,3.77
2019-03-18T14:39:16.799Z,4.80
2019-03-18T14:41:43.440Z,6.77
2019-03-18T14:44:10.161Z,6.67
2019-03-18T14:46:36.924Z,3.93
2019-03-18T14:49:03.689Z,4.70
2019-03-18T14:51:31.487Z,3.40
2019-03-18T14:53:58.339Z,2.40
2019-03-18T14:56:26.115Z,5.53
2019-03-18T14:58:53.023Z,2.30
2019-03-18T15:01:19.769Z,2.93
2019-03-18T15:03:46.454Z,4.03
2019-03-18T15:06:13.206Z,4.90
2019-03-18T15:08:40.000Z,3.03
2019-03-18T15:11:06.617Z,5.63
2019-03-18T15:13:33.245Z,6.37
2019-03-18T15:15:59.908Z,6.17
2019-03-18T15:18:26.641Z,7.07
2019-03-18T15:20:55.329Z,5.20
2019-03-18T15:23:22.189Z,5.97
2019-03-18T15:25:48.999Z,6.10
2019-03-18T15:28:15.663Z,5.40
2019-03-18T15:30:42.483Z,6.73
2019-03-18T15:33:09.226Z,6.77
2019-03-18T15:35:36.049Z,6.00
2019-03-18T15:38:02.954Z,6.27
2019-03-18T15:40:29.581Z,8.27
2019-03-18T15:42:58.158Z,6.00
2019-03-18T15:45:25.341Z,5.30
2019-03-18T15:47:51.999Z,5.00
2019-03-18T15:50:25.665Z,7.77
2019-03-18T15:52:52.369Z,8.53
2019-03-18T15:55:19.228Z,9.90
2019-03-18T15:57:47.169Z,7.93
2019-03-18T16:00:24.221Z,7.67
2019-03-18T16:02:51.161Z,10.20
2019-03-18T16:05:20.364Z,7.47
2019-03-18T16:07:47.322Z,11.40
2019-03-18T16:10:15.711Z,12.33
2019-03-18T16:12:42.820Z,8.17
2019-03-18T16:15:12.559Z,10.17
2019-03-18T16:17:41.461Z,7.07
2019-03-18T16:20:22.210Z,7.53
2019-03-18T16:22:49.129Z,10.87
2019-03-18T16:25:16.011Z,8.20
2019-03-18T16:27:42.685Z,10.33
2019-03-18T16:30:12.455Z,8.87
2019-03-18T16:32:39.184Z,6.43
2019-03-18T16:35:08.016Z,8.73
2019-03-18T16:37:34.685Z,7.23
2019-03-18T16:40:01.712Z,10.47
2019-03-18T16:42:29.831Z,6.67
2019-03-18T16:44:56.585Z,7.90
2019-03-18T16:47:23.319Z,8.97
2019-03-18T16:49:53.653Z,8.17
2019-03-18T16:52:20.799Z,7.60
2019-03-18T16:54:47.562Z,9.03
2019-03-18T16:57:14.171Z,5.57
2019-03-18T16:59:40.817Z,8.97
2019-03-18T17:02:07.669Z,6.63
2019-03-18T17:04:34.399Z,6.90
2019-03-18T17:07:01.248Z,6.20
2019-03-18T17:09:29.846Z,4.67
2019-03-18T17:11:57.189Z,7.13
2019-03-18T17:14:23.845Z,11.07
2019-03-18T17:16:52.794Z,11.33
2019-03-18T17:19:19.561Z,8.30
2019-03-18T17:21:46.317Z,15.03
2019-03-18T17:24:13.156Z,8.27
2019-03-18T17:26:39.792Z,7.77
2019-03-18T17:29:06.429Z,9.10
2019-03-18T17:31:33.417Z,8.13
2019-03-18T17:34:02.037Z,8.20
2019-03-18T17:36:30.118Z,10.77
2019-03-18T17:38:57.223Z,11.30
2019-03-18T17:41:23.957Z,8.23
2019-03-18T17:43:51.209Z,8.63
2019-03-18T17:46:18.081Z,8.30
2019-03-18T17:48:44.722Z,10.03
2019-03-18T17:51:12.520Z,7.23
2019-03-18T17:53:39.140Z,10.77
2019-03-18T17:56:06.153Z,11.03
2019-03-18T17:58:32.949Z,11.10
2019-03-18T18:01:03.592Z,14.53
2019-03-18T18:03:30.230Z,13.67
2019-03-18T18:05:57.124Z,13.03
2019-03-18T18:08:23.783Z,15.40
2019-03-18T18:10:50.629Z,15.93
2019-03-18T18:13:17.404Z,11.27
2019-03-18T18:15:44.326Z,14.57
2019-03-18T18:18:11.216Z,14.00
2019-03-18T18:20:38.052Z,7.77
2019-03-18T18:23:13.752Z,13.67
2019-03-18T18:25:33.679Z,12.93
2019-03-18T18:28:01.491Z,15.70
2019-03-18T18:30:28.268Z,10.67
2019-03-18T18:32:55.088Z,5.47
2019-03-18T18:35:21.897Z,8.57
2019-03-18T18:37:48.724Z,14.80
2019-03-18T18:40:16.963Z,9.20
2019-03-18T18:42:44.305Z,8.40
2019-03-18T18:45:11.822Z,11.13
2019-03-18T18:47:38.749Z,13.17
2019-03-18T18:50:07.736Z,12.87
2019-03-18T18:52:34.765Z,14.97
2019-03-18T18:55:01.960Z,10.47
2019-03-18T18:57:28.965Z,16.30
2019-03-18T18:59:55.761Z,12.37
2019-03-18T19:02:22.523Z,6.57
2019-03-18T19:04:49.299Z,13.53
2019-03-18T19:07:19.257Z,11.23
2019-03-18T19:09:46.887Z,16.60
2019-03-18T19:12:13.923Z,11.93
2019-03-18T19:14:40.623Z,14.13
2019-03-18T19:17:07.370Z,18.70
2019-03-18T19:19:34.125Z,13.67
2019-03-18T19:22:01.189Z,12.23
2019-03-18T19:24:27.827Z,14.10
2019-03-18T19:26:54.482Z,10.87
2019-03-18T19:29:21.071Z,15.30
2019-03-18T19:31:48.113Z,13.83
2019-03-18T19:34:15.033Z,18.97
2019-03-18T19:36:41.601Z,14.33
2019-03-18T19:39:08.151Z,14.67
2019-03-18T19:41:34.929Z,16.60
2019-03-18T19:44:01.696Z,18.13
2019-03-18T19:46:28.777Z,13.90
2019-03-18T19:48:55.525Z,13.70
2019-03-18T19:51:22.396Z,17.97
2019-03-18T19:53:49.672Z,12.33
2019-03-18T19:56:16.575Z,10.63
2019-03-18T19:58:43.447Z,12.83
2019-03-18T20:01:12.225Z,12.20
2019-03-18T20:03:39.355Z,15.77
2019-03-18T20:06:06.298Z,15.43
2019-03-18T20:08:33.160Z,12.00
2019-03-18T20:10:59.999Z,12.80
2019-03-18T20:13:26.905Z,18.17
2019-03-18T20:15:53.650Z,12.70
2019-03-18T20:18:20.460Z,16.77
2019-03-18T20:20:47.195Z,11.83
2019-03-18T20:23:13.948Z,12.73
2019-03-18T20:25:40.842Z,12.87
2019-03-18T20:28:07.618Z,16.97
2019-03-18T20:30:34.285Z,9.30
2019-03-18T20:33:01.531Z,23.00
2019-03-18T20:35:28.185Z,13.53
2019-03-18T20:37:54.952Z,12.73
2019-03-18T20:40:21.928Z,16.60
2019-03-18T20:42:49.012Z,12.37
2019-03-18T20:45:18.420Z,13.23
2019-03-18T20:47:46.283Z,11.90
2019-03-18T20:50:15.917Z,17.83
2019-03-18T20:52:43.549Z,11.53
2019-03-18T20:55:11.541Z,10.73
2019-03-18T20:57:38.626Z,18.50
2019-03-18T21:00:16.603Z,17.03
2019-03-18T21:02:44.129Z,11.97
2019-03-18T21:05:11.250Z,18.80
2019-03-18T21:07:38.219Z,14.00
2019-03-18T21:10:14.064Z,17.70
2019-03-18T21:12:41.526Z,24.23
2019-03-18T21:15:13.697Z,22.60
2019-03-18T21:17:41.644Z,21.07
2019-03-18T21:20:26.958Z,19.77
2019-03-18T21:22:53.825Z,15.57
2019-03-18T21:25:20.630Z,17.13
2019-03-18T21:27:47.414Z,21.43
2019-03-18T21:30:16.760Z,22.37
2019-03-18T21:32:44.758Z,20.37
2019-03-18T21:35:11.607Z,21.27
2019-03-18T21:37:38.332Z,22.40
2019-03-18T21:40:08.929Z,17.40
2019-03-18T21:42:37.528Z,18.53
2019-03-18T21:45:07.784Z,18.23
2019-03-18T21:47:34.435Z,19.90
2019-03-18T21:50:04.003Z,18.57
2019-03-18T21:52:32.645Z,22.77
2019-03-18T21:54:59.329Z,27.23
2019-03-18T21:57:26.115Z,27.00
2019-03-18T21:59:53.425Z,23.93
2019-03-18T22:02:20.268Z,17.33
2019-03-18T22:04:46.918Z,15.93
2019-03-18T22:07:13.975Z,19.83
2019-03-18T22:09:40.724Z,22.20
2019-03-18T22:12:07.325Z,18.27
2019-03-18T22:14:34.203Z,21.73
2019-03-18T22:17:01.118Z,19.00
2019-03-18T22:19:27.989Z,17.83
2019-03-18T22:21:54.735Z,25.10
2019-03-18T22:24:21.448Z,20.63
2019-03-18T22:26:48.832Z,19.20
2019-03-18T22:29:15.837Z,24.40
2019-03-18T22:31:43.114Z,20.30
2019-03-18T22:34:10.015Z,16.27
2019-03-18T22:36:36.876Z,17.10
2019-03-18T22:39:06.219Z,23.23
2019-03-18T22:41:32.934Z,22.90
2019-03-18T22:43:59.742Z,19.47
2019-03-18T22:46:26.388Z,17.73
2019-03-18T22:48:53.088Z,24.23
2019-03-18T22:51:20.111Z,29.60
2019-03-18T22:53:46.731Z,27.50
2019-03-18T22:56:13.384Z,25.90
2019-03-18T22:58:40.106Z,22.53
2019-03-18T23:01:08.724Z,21.80
2019-03-18T23:03:35.488Z,21.13
2019-03-18T23:06:02.633Z,28.07
2019-03-18T23:08:29.270Z,26.73
2019-03-18T23:10:56.244Z,18.00
2019-03-18T23:13:23.067Z,22.70
2019-03-18T23:15:49.635Z,22.30
2019-03-18T23:18:16.287Z,26.70
2019-03-18T23:20:42.909Z,24.77
2019-03-18T23:23:09.677Z,29.20
2019-03-18T23:25:36.426Z,17.50
2019-03-18T23:28:03.259Z,23.33
2019-03-18T23:30:30.197Z,19.93
2019-03-18T23:32:57.072Z,20.87
2019-03-18T23:35:23.888Z,16.40
2019-03-18T23:37:50.622Z,21.67
2019-03-18T23:40:17.472Z,18.60
2019-03-18T23:42:44.116Z,22.57
2019-03-18T23:45:11.137Z,14.83
2019-03-18T23:47:37.659Z,21.30
2019-03-18T23:50:07.914Z,16.43
2019-03-18T23:52:34.482Z,25.73
2019-03-18T23:55:01.357Z,19.60
2019-03-18T23:57:27.968Z,22.13
2019-03-18T23:59:54.454Z,21.83
